Hauptseite
METAR-TAF:

METAR-TAF

Flughäfen :

Militärflugplatz Ghedi

Brescia Ghedi, Italien

Breite: 45-25N, Länge: 010-17E, Höhe: 102 m

Beobachtung

Neuester Wetterbericht von vor 1 Stunde und 14 Minuten, um 09:55 UTC
Wind 2 kt aus West/Nordwest
Temperatur 4°C
Luftfeuchtigkeit 56%
Luftdruck 1018 hPa
Sichtweite 10 km oder mehr
Aufgelockert bewölkt in der Höhe von 5000 ft
Durchbrochene Bewölkung in der Höhe von 7000 ft

METAR: LIPL 190955Z 30002KT 9999 SCT050 BKN070 04/M04 Q1018 RMK OVC VIS MIN 9999 WIND THR31 31002KT WIND THR13 30002KT BLU

Zeit: 12:09 (11:09 UTC)

Prognose

Neuester Wetterbericht von vor 3 Stunden und 9 Minuten, um 08:00 UTC
Gültige Prognose vom 19 um 09 UTC bis 19 um 18 UTC
Wind 3 kt aus unterschiedlichen Richtungen
Sichtweite 10 km oder mehr
Aufgelockert bewölkt in der Höhe von 3000 ft
Durchbrochene Bewölkung in der Höhe von 6000 ft

TAF: LIPL 190800Z 1909/1918 VRB03KT 9999 SCT030 BKN060

Wetterbeobachtungen und Prognosen von mehr als 4000 Flughäfen (METAR und TAF Bericht).

Die verfügbaren Stationen werden durch gelbe und rote Markierungen auf der Karte dargestellt.

Führen Sie die Maus auf sie, um den Namen der Station zu sehen.

Darauf klicken, um die Beobachtung von Wetterbeobachtungen und Prognosen zu sehen.

Um die Karte zu ändern : klicken Sie auf den grünen Tasten mit einem schwarzen Kreuz Zum Vergrößern, auf den grünen Button mit einem Gedankenstrich zu verkleinern, oder auf die grünen Pfeile für benachbarte Karten.


METAR-TAF: